createdAt,value
2023-04-09T00:00:16.967Z,90.4
2023-04-09T00:01:16.512Z,90.4
2023-04-09T00:02:17.236Z,90.6
2023-04-09T00:03:16.929Z,90.5
2023-04-09T00:04:17.559Z,90.4
2023-04-09T00:05:17.134Z,90.5
2023-04-09T00:06:16.689Z,90.4
2023-04-09T00:07:17.239Z,90.4
2023-04-09T00:08:16.819Z,90.3
2023-04-09T00:09:17.359Z,90.3
2023-04-09T00:10:16.894Z,90.3
2023-04-09T00:11:17.446Z,90.3
2023-04-09T00:12:16.893Z,90.4
2023-04-09T00:13:35.988Z,90.3
2023-04-09T00:14:16.961Z,90.4
2023-04-09T00:15:31.434Z,90.4
2023-04-09T00:16:17.607Z,90.4
2023-04-09T00:17:17.193Z,90.4
2023-04-09T00:18:16.736Z,90.4
2023-04-09T00:19:17.334Z,90.4
2023-04-09T00:20:16.894Z,90.5
2023-04-09T00:21:17.464Z,90.6
2023-04-09T00:22:17.327Z,90.6
2023-04-09T00:23:16.851Z,90.6
2023-04-09T00:24:17.420Z,90.6
2023-04-09T00:25:17.034Z,90.5
2023-04-09T00:26:16.620Z,90.5
2023-04-09T00:27:17.201Z,90.6
2023-04-09T00:28:16.744Z,90.6
2023-04-09T00:29:17.326Z,90.5
2023-04-09T00:30:16.907Z,90.6
2023-04-09T00:31:20.810Z,90.8
2023-04-09T00:32:17.036Z,90.8
2023-04-09T00:33:16.571Z,90.8
2023-04-09T00:34:17.163Z,90.7
2023-04-09T00:35:16.707Z,90.6
2023-04-09T00:36:17.298Z,90.6
2023-04-09T00:37:16.938Z,90.6
2023-04-09T00:38:17.496Z,90.6
2023-04-09T00:39:17.032Z,90.6
2023-04-09T00:40:16.577Z,90.8
2023-04-09T00:41:17.125Z,90.6
2023-04-09T00:42:17.222Z,90.6
2023-04-09T00:43:16.829Z,90.5
2023-04-09T00:44:17.399Z,90.6
2023-04-09T00:45:16.989Z,90.6
2023-04-09T00:46:16.630Z,90.6
2023-04-09T00:47:17.193Z,90.7
2023-04-09T00:48:16.746Z,90.6
2023-04-09T00:49:17.288Z,90.6
2023-04-09T00:50:16.827Z,90.6
2023-04-09T00:51:17.419Z,90.6
2023-04-09T00:52:17.403Z,90.6
2023-04-09T00:53:16.956Z,90.6
2023-04-09T00:54:17.501Z,90.5
2023-04-09T00:55:17.034Z,90.4
2023-04-09T00:56:16.606Z,90.4
2023-04-09T00:57:17.209Z,90.4
2023-04-09T00:58:16.775Z,90.4
2023-04-09T00:59:17.339Z,90.4
2023-04-09T01:00:16.933Z,90.5
2023-04-09T01:01:17.534Z,90.6
2023-04-09T01:02:17.114Z,90.5
2023-04-09T01:03:16.820Z,90.6
2023-04-09T01:04:17.420Z,90.7
2023-04-09T01:05:16.952Z,90.7
2023-04-09T01:06:17.489Z,90.7
2023-04-09T01:07:17.052Z,90.7
2023-04-09T01:08:16.650Z,90.6
2023-04-09T01:09:17.213Z,90.6
2023-04-09T01:10:16.780Z,90.6
2023-04-09T01:11:17.337Z,90.7
2023-04-09T01:12:17.432Z,90.7
2023-04-09T01:13:16.993Z,90.7
2023-04-09T01:14:16.561Z,90.8
2023-04-09T01:15:17.091Z,90.8
2023-04-09T01:16:16.674Z,90.9
2023-04-09T01:17:17.449Z,90.8
2023-04-09T01:18:17.187Z,90.9
2023-04-09T01:19:16.756Z,90.9
2023-04-09T01:20:17.290Z,90.9
2023-04-09T01:21:16.824Z,90.9
2023-04-09T01:22:17.097Z,90.9
2023-04-09T01:23:16.648Z,90.9
2023-04-09T01:24:17.186Z,90.8
2023-04-09T01:25:16.762Z,90.8
2023-04-09T01:26:17.313Z,90.7
2023-04-09T01:27:16.866Z,90.7
2023-04-09T01:28:17.462Z,90.7
2023-04-09T01:29:17.057Z,90.7
2023-04-09T01:30:16.614Z,90.8
2023-04-09T01:31:17.140Z,91.0
2023-04-09T01:32:16.920Z,91.0
2023-04-09T01:33:17.441Z,91.0
2023-04-09T01:34:17.001Z,91.0
2023-04-09T01:35:16.579Z,91.0
2023-04-09T01:36:17.130Z,91.0
2023-04-09T01:37:16.701Z,91.2
2023-04-09T01:38:17.265Z,91.4
2023-04-09T01:39:16.859Z,91.4
2023-04-09T01:40:17.449Z,91.6
2023-04-09T01:41:17.008Z,91.6
2023-04-09T01:42:16.998Z,91.6
2023-04-09T01:43:16.537Z,91.5
2023-04-09T01:44:17.059Z,91.6
2023-04-09T01:45:16.594Z,91.5
2023-04-09T01:46:17.230Z,91.5
2023-04-09T01:47:16.760Z,91.4
2023-04-09T01:48:17.299Z,91.3
2023-04-09T01:49:16.833Z,91.3
2023-04-09T01:50:17.403Z,91.4
2023-04-09T01:51:16.987Z,91.3
2023-04-09T01:52:16.646Z,91.3
2023-04-09T01:53:17.197Z,91.3
2023-04-09T01:54:16.788Z,91.2
2023-04-09T01:55:17.350Z,91.3
2023-04-09T01:56:16.962Z,91.3
2023-04-09T01:57:16.509Z,91.4
2023-04-09T01:58:17.044Z,91.4
2023-04-09T01:59:16.677Z,91.4
2023-04-09T02:00:17.257Z,91.4
2023-04-09T02:01:16.909Z,91.4
2023-04-09T02:02:17.336Z,91.4
2023-04-09T02:03:17.162Z,91.3
2023-04-09T02:04:16.796Z,91.4
2023-04-09T02:05:17.381Z,91.6
2023-04-09T02:06:16.908Z,91.6
2023-04-09T02:07:17.505Z,91.6
2023-04-09T02:08:17.049Z,91.6
2023-04-09T02:09:16.638Z,91.7
2023-04-09T02:10:17.205Z,91.7
2023-04-09T02:11:16.795Z,91.6
2023-04-09T02:12:17.111Z,91.6
2023-04-09T02:13:16.643Z,91.8
2023-04-09T02:14:17.188Z,92.0
2023-04-09T02:15:16.730Z,92.1
2023-04-09T02:16:17.491Z,92.1
2023-04-09T02:17:17.168Z,92.0
2023-04-09T02:19:16.780Z,91.9
2023-04-09T02:20:17.342Z,91.9
2023-04-09T02:21:16.906Z,91.9
2023-04-09T02:22:17.199Z,91.9
2023-04-09T02:23:16.767Z,91.8
2023-04-09T02:24:17.327Z,91.8
2023-04-09T02:25:16.851Z,91.8
2023-04-09T02:26:17.404Z,91.6
2023-04-09T02:27:16.952Z,91.5
2023-04-09T02:28:17.505Z,91.5
2023-04-09T02:29:17.061Z,91.4
2023-04-09T02:30:16.619Z,91.4
2023-04-09T02:31:17.187Z,91.4
2023-04-09T02:32:17.362Z,91.4
2023-04-09T02:33:17.060Z,91.4
2023-04-09T02:34:16.620Z,91.5
2023-04-09T02:35:17.193Z,91.6
2023-04-09T02:36:16.808Z,91.7
2023-04-09T02:37:17.367Z,91.8
2023-04-09T02:38:16.953Z,91.9
2023-04-09T02:39:17.505Z,92.0
2023-04-09T02:40:17.065Z,92.0
2023-04-09T02:41:16.624Z,91.9
2023-04-09T02:42:17.341Z,91.9
2023-04-09T02:43:16.887Z,91.8
2023-04-09T02:44:17.443Z,91.8
2023-04-09T02:45:16.975Z,91.8
2023-04-09T02:46:16.704Z,91.8
2023-04-09T02:47:17.280Z,91.7
2023-04-09T02:48:16.838Z,91.8
2023-04-09T02:49:17.408Z,91.8
2023-04-09T02:50:17.021Z,91.8
2023-04-09T02:51:16.591Z,91.7
2023-04-09T02:52:17.505Z,91.7
2023-04-09T02:53:17.040Z,91.6
2023-04-09T02:54:16.580Z,91.8
2023-04-09T02:55:17.115Z,92.0
2023-04-09T02:56:16.646Z,91.9
2023-04-09T02:57:17.207Z,92.1
2023-04-09T02:58:16.726Z,92.2
2023-04-09T02:59:17.295Z,92.3
2023-04-09T03:00:16.842Z,92.3
2023-04-09T03:01:17.570Z,92.2
2023-04-09T03:02:17.562Z,92.1
2023-04-09T03:03:17.489Z,92.1
2023-04-09T03:04:17.283Z,92.1
2023-04-09T03:05:16.873Z,92.1
2023-04-09T03:06:17.421Z,92.1
2023-04-09T03:07:16.970Z,92.2
2023-04-09T03:08:16.515Z,92.3
2023-04-09T03:09:17.051Z,92.3
2023-04-09T03:10:16.597Z,92.5
2023-04-09T03:11:17.138Z,92.5
2023-04-09T03:12:17.196Z,92.5
2023-04-09T03:13:16.778Z,92.9
2023-04-09T03:14:17.332Z,93.0
2023-04-09T03:15:16.938Z,93.0
2023-04-09T03:16:17.659Z,93.0
2023-04-09T03:17:17.238Z,92.9
2023-04-09T03:18:16.800Z,93.0
2023-04-09T03:19:17.353Z,93.1
2023-04-09T03:20:16.905Z,93.2
2023-04-09T03:21:17.451Z,93.3
2023-04-09T03:22:17.198Z,93.5
2023-04-09T03:23:16.762Z,93.5
2023-04-09T03:24:17.327Z,93.5
2023-04-09T03:25:16.875Z,93.5
2023-04-09T03:26:17.426Z,93.5
2023-04-09T03:27:16.986Z,93.4
2023-04-09T03:28:16.509Z,93.4
2023-04-09T03:29:17.104Z,93.3
2023-04-09T03:30:16.701Z,93.6
2023-04-09T03:31:17.372Z,94.0
2023-04-09T03:32:19.271Z,94.0
2023-04-09T03:33:16.873Z,94.1
2023-04-09T03:34:17.409Z,94.0
2023-04-09T03:35:16.986Z,94.0
2023-04-09T03:36:16.533Z,94.0
2023-04-09T03:37:17.144Z,94.1
2023-04-09T03:38:16.689Z,94.1
2023-04-09T03:39:17.227Z,94.1
2023-04-09T03:40:16.748Z,94.1
2023-04-09T03:41:17.260Z,94.2
2023-04-09T03:42:16.896Z,94.2
2023-04-09T03:43:17.441Z,94.4
2023-04-09T03:44:17.001Z,94.5
2023-04-09T03:45:16.576Z,94.6
2023-04-09T03:46:17.173Z,94.6
2023-04-09T03:47:16.709Z,94.8
2023-04-09T03:48:17.261Z,94.9
2023-04-09T03:49:16.825Z,94.9
2023-04-09T03:50:17.408Z,94.9
2023-04-09T03:51:16.999Z,94.9
2023-04-09T03:52:16.676Z,95.0
2023-04-09T03:53:17.228Z,95.0
2023-04-09T03:54:16.868Z,95.0
2023-04-09T03:55:17.429Z,94.9
2023-04-09T03:56:16.983Z,94.8
2023-04-09T03:57:16.552Z,94.9
2023-04-09T03:58:17.149Z,95.1
2023-04-09T03:59:16.737Z,95.2
2023-04-09T04:00:17.302Z,95.2
2023-04-09T04:01:16.890Z,95.2
2023-04-09T04:02:17.673Z,95.2
2023-04-09T04:03:17.678Z,95.3
2023-04-09T04:04:17.513Z,95.2
2023-04-09T04:05:17.167Z,95.3
2023-04-09T04:06:16.720Z,95.3
2023-04-09T04:07:17.273Z,95.3
2023-04-09T04:08:16.813Z,95.3
2023-04-09T04:09:17.397Z,95.4
2023-04-09T04:10:16.946Z,95.6
2023-04-09T04:11:17.554Z,95.7
2023-04-09T04:12:17.336Z,95.7
2023-04-09T04:13:16.957Z,95.8
2023-04-09T04:14:16.574Z,95.7
2023-04-09T04:16:17.355Z,95.8
2023-04-09T04:17:16.966Z,95.8
2023-04-09T04:18:16.533Z,95.9
2023-04-09T04:19:17.123Z,96.0
2023-04-09T04:20:16.734Z,96.1
2023-04-09T04:21:17.314Z,96.1
2023-04-09T04:22:16.995Z,96.1
2023-04-09T04:23:16.550Z,96.1
2023-04-09T04:24:17.079Z,96.1
2023-04-09T04:25:16.702Z,96.2
2023-04-09T04:26:17.304Z,96.2
2023-04-09T04:27:16.887Z,96.3
2023-04-09T04:28:17.450Z,96.2
2023-04-09T04:29:17.041Z,96.2
2023-04-09T04:30:16.613Z,96.4
2023-04-09T04:31:17.262Z,96.5
2023-04-09T04:32:16.898Z,96.4
2023-04-09T04:33:17.470Z,96.4
2023-04-09T04:34:17.058Z,96.4
2023-04-09T04:35:16.668Z,96.4
2023-04-09T04:36:17.255Z,96.6
2023-04-09T04:37:16.787Z,96.5
2023-04-09T04:38:17.309Z,96.5
2023-04-09T04:39:16.876Z,96.5
2023-04-09T04:40:17.424Z,96.5
2023-04-09T04:41:16.975Z,96.4
2023-04-09T04:42:16.783Z,96.5
2023-04-09T04:43:17.348Z,96.6
2023-04-09T04:44:16.921Z,96.6
2023-04-09T04:45:17.521Z,96.6
2023-04-09T04:46:17.197Z,96.8
2023-04-09T04:47:16.791Z,96.8
2023-04-09T04:48:17.357Z,96.7
2023-04-09T04:49:16.932Z,96.7
2023-04-09T04:50:17.497Z,96.6
2023-04-09T04:51:17.025Z,96.7
2023-04-09T04:52:18.101Z,96.8
2023-04-09T04:53:16.669Z,96.7
2023-04-09T04:54:17.231Z,96.6
2023-04-09T04:55:16.808Z,96.6
2023-04-09T04:56:17.396Z,96.6
2023-04-09T04:57:16.948Z,96.5
2023-04-09T04:58:17.496Z,96.5
2023-04-09T04:59:17.058Z,96.5
2023-04-09T05:00:16.586Z,96.6
2023-04-09T05:01:17.164Z,96.7
2023-04-09T05:02:17.165Z,96.7
2023-04-09T05:03:17.011Z,96.7
2023-04-09T05:04:16.595Z,96.6
2023-04-09T05:05:17.156Z,96.6
2023-04-09T05:06:16.694Z,96.5
2023-04-09T05:07:17.225Z,96.5
2023-04-09T05:08:16.781Z,96.4
2023-04-09T05:09:17.340Z,96.3
2023-04-09T05:10:16.908Z,96.4
2023-04-09T05:11:17.480Z,96.4
2023-04-09T05:12:16.601Z,96.4
2023-04-09T05:13:17.191Z,96.3
2023-04-09T05:14:16.741Z,96.3
2023-04-09T05:15:17.281Z,96.2
2023-04-09T05:16:16.858Z,96.1
2023-04-09T05:17:17.475Z,96.1
2023-04-09T05:18:17.040Z,96.1
2023-04-09T05:19:16.583Z,96.1
2023-04-09T05:20:17.224Z,96.1
2023-04-09T05:21:16.818Z,96.0
2023-04-09T05:22:16.566Z,95.8
2023-04-09T05:23:17.126Z,95.4
2023-04-09T05:24:16.691Z,94.4
2023-04-09T05:25:17.326Z,94.0
2023-04-09T05:26:16.902Z,92.9
2023-04-09T05:27:17.515Z,92.0
2023-04-09T05:28:17.139Z,92.2
2023-04-09T05:29:16.704Z,91.9
2023-04-09T05:30:17.324Z,92.0
2023-04-09T05:31:17.058Z,92.3
2023-04-09T05:32:17.126Z,92.2
2023-04-09T05:33:16.714Z,92.0
2023-04-09T05:34:17.260Z,92.2
2023-04-09T05:35:16.834Z,92.2
2023-04-09T05:36:17.430Z,92.2
2023-04-09T05:37:16.992Z,92.1
2023-04-09T05:38:16.553Z,92.0
2023-04-09T05:39:17.099Z,92.0
2023-04-09T05:40:16.677Z,91.7
2023-04-09T05:41:17.227Z,90.5
2023-04-09T05:42:16.948Z,90.5
2023-04-09T05:43:17.495Z,91.0
2023-04-09T05:44:17.039Z,91.5
2023-04-09T05:45:16.639Z,91.0
2023-04-09T05:46:17.263Z,91.0
2023-04-09T05:47:16.852Z,91.2
2023-04-09T05:48:17.396Z,91.5
2023-04-09T05:49:16.974Z,91.7
2023-04-09T05:50:16.579Z,91.5
2023-04-09T05:51:17.120Z,91.7
2023-04-09T05:52:17.323Z,91.4
2023-04-09T05:53:16.867Z,91.4
2023-04-09T05:54:17.426Z,91.3
2023-04-09T05:55:16.993Z,91.4
2023-04-09T05:56:16.557Z,91.1
2023-04-09T05:57:17.157Z,91.0
2023-04-09T05:58:16.691Z,90.4
2023-04-09T05:59:17.290Z,90.5
2023-04-09T06:00:16.885Z,90.2
2023-04-09T06:01:17.452Z,90.2
2023-04-09T06:02:17.543Z,89.9
2023-04-09T06:03:17.540Z,89.9
2023-04-09T06:04:17.720Z,89.5
2023-04-09T06:05:17.316Z,89.9
2023-04-09T06:06:16.886Z,90.0
2023-04-09T06:07:17.443Z,88.4
2023-04-09T06:08:16.996Z,88.3
2023-04-09T06:09:16.558Z,88.8
2023-04-09T06:10:17.144Z,87.6
2023-04-09T06:11:16.691Z,87.1
2023-04-09T06:12:17.438Z,87.7
2023-04-09T06:13:17.004Z,88.5
2023-04-09T06:14:16.670Z,86.2
2023-04-09T06:15:17.222Z,86.9
2023-04-09T06:16:17.012Z,87.6
2023-04-09T06:17:16.653Z,86.6
2023-04-09T06:18:17.205Z,86.9
2023-04-09T06:19:16.827Z,86.9
2023-04-09T06:20:17.398Z,86.4
2023-04-09T06:21:16.973Z,86.7
2023-04-09T06:22:17.066Z,86.6
2023-04-09T06:23:16.591Z,85.9
2023-04-09T06:24:17.154Z,84.6
2023-04-09T06:25:16.684Z,83.7
2023-04-09T06:26:17.204Z,83.2
2023-04-09T06:27:16.747Z,82.7
2023-04-09T06:28:17.281Z,82.9
2023-04-09T06:29:16.872Z,82.7
2023-04-09T06:30:17.428Z,82.7
2023-04-09T06:31:16.994Z,82.1
2023-04-09T06:32:16.609Z,82.6
2023-04-09T06:33:17.199Z,82.7
2023-04-09T06:34:16.796Z,81.8
2023-04-09T06:35:17.335Z,82.1
2023-04-09T06:36:16.924Z,81.8
2023-04-09T06:37:17.432Z,81.4
2023-04-09T06:38:16.984Z,82.1
2023-04-09T06:39:16.515Z,81.2
2023-04-09T06:40:17.053Z,80.6
2023-04-09T06:41:16.576Z,78.7
2023-04-09T06:42:16.771Z,80.0
2023-04-09T06:43:17.349Z,81.1
2023-04-09T06:44:17.119Z,79.9
2023-04-09T06:45:16.708Z,79.0
2023-04-09T06:46:17.384Z,76.5
2023-04-09T06:47:17.004Z,76.0
2023-04-09T06:48:16.570Z,77.0
2023-04-09T06:49:17.117Z,77.5
2023-04-09T06:50:16.690Z,76.2
2023-04-09T06:51:17.266Z,76.2
2023-04-09T06:52:16.711Z,75.0
2023-04-09T06:53:17.406Z,75.9
2023-04-09T06:54:16.966Z,76.1
2023-04-09T06:55:16.558Z,76.3
2023-04-09T06:56:17.101Z,74.8
2023-04-09T06:57:16.669Z,74.2
2023-04-09T06:58:17.253Z,74.4
2023-04-09T06:59:16.801Z,74.2
2023-04-09T07:00:17.365Z,74.4
2023-04-09T07:01:16.937Z,73.4
2023-04-09T07:02:17.589Z,74.7
2023-04-09T07:03:17.493Z,72.6
2023-04-09T07:04:17.425Z,73.9
2023-04-09T07:05:17.105Z,73.5
2023-04-09T07:06:16.654Z,71.8
2023-04-09T07:07:17.226Z,72.2
2023-04-09T07:08:16.799Z,70.9
2023-04-09T07:09:17.332Z,71.5
2023-04-09T07:10:16.876Z,69.4
2023-04-09T07:11:17.543Z,69.2
2023-04-09T07:12:17.368Z,69.4
2023-04-09T07:13:16.969Z,69.0
2023-04-09T07:14:16.506Z,67.8
2023-04-09T07:15:17.148Z,69.8
2023-04-09T07:16:16.875Z,68.3
2023-04-09T07:17:17.494Z,67.8
2023-04-09T07:18:17.074Z,67.4
2023-04-09T07:19:16.632Z,67.3
2023-04-09T07:20:17.224Z,66.9
2023-04-09T07:21:16.767Z,66.5
2023-04-09T07:22:17.107Z,65.4
2023-04-09T07:23:16.656Z,65.3
2023-04-09T07:24:17.251Z,66.3
2023-04-09T07:25:16.868Z,67.6
2023-04-09T07:26:17.440Z,66.4
2023-04-09T07:27:17.002Z,66.2
2023-04-09T07:28:16.778Z,65.0
2023-04-09T07:29:17.401Z,66.4
2023-04-09T07:30:16.985Z,65.0
2023-04-09T07:31:16.615Z,64.6
2023-04-09T07:32:17.032Z,63.9
2023-04-09T07:33:16.613Z,62.6
2023-04-09T07:34:17.188Z,61.8
2023-04-09T07:35:16.720Z,61.2
2023-04-09T07:36:17.305Z,61.6
2023-04-09T07:37:16.873Z,61.9
2023-04-09T07:38:17.433Z,61.7
2023-04-09T07:39:16.995Z,58.2
2023-04-09T07:40:16.544Z,58.2
2023-04-09T07:41:17.148Z,57.7
2023-04-09T07:42:16.688Z,58.7
2023-04-09T07:43:17.417Z,58.6
2023-04-09T07:44:16.977Z,59.5
2023-04-09T07:45:16.541Z,60.1
2023-04-09T07:46:17.141Z,59.6
2023-04-09T07:47:16.734Z,60.0
2023-04-09T07:48:17.276Z,58.6
2023-04-09T07:49:16.807Z,58.4
2023-04-09T07:50:17.387Z,57.5
2023-04-09T07:51:16.934Z,58.2
2023-04-09T07:52:17.395Z,57.3
2023-04-09T07:53:16.948Z,56.9
2023-04-09T07:54:17.469Z,58.8
2023-04-09T07:55:18.756Z,59.2
2023-04-09T07:56:17.335Z,59.1
2023-04-09T07:57:16.896Z,58.7
2023-04-09T07:58:17.445Z,58.7
2023-04-09T07:59:17.020Z,59.0
2023-04-09T08:00:16.602Z,57.8
2023-04-09T08:01:17.165Z,58.9
2023-04-09T08:02:17.156Z,58.5
2023-04-09T08:03:17.342Z,58.4
2023-04-09T08:04:17.295Z,56.6
2023-04-09T08:05:17.088Z,56.1
2023-04-09T08:06:16.698Z,55.8
2023-04-09T08:07:17.289Z,55.2
2023-04-09T08:08:16.849Z,54.8
2023-04-09T08:09:17.421Z,55.9
2023-04-09T08:10:17.023Z,54.5
2023-04-09T08:11:16.573Z,55.1
2023-04-09T08:12:17.333Z,54.7
2023-04-09T08:13:16.932Z,53.5
2023-04-09T08:14:17.504Z,53.2
2023-04-09T08:15:17.096Z,54.1
2023-04-09T08:16:16.743Z,53.8
2023-04-09T08:17:17.284Z,52.3
2023-04-09T08:18:16.851Z,53.0
2023-04-09T08:19:17.445Z,52.0
2023-04-09T08:20:17.009Z,52.4
2023-04-09T08:21:16.580Z,50.9
2023-04-09T08:22:16.564Z,50.5
2023-04-09T08:23:17.150Z,52.4
2023-04-09T08:24:16.799Z,52.5
2023-04-09T08:25:17.457Z,51.0
2023-04-09T08:26:17.025Z,50.4
2023-04-09T08:27:16.603Z,55.4
2023-04-09T08:28:17.174Z,52.4
2023-04-09T08:29:16.697Z,51.9
2023-04-09T08:30:19.170Z,51.5
2023-04-09T08:31:16.793Z,52.8
2023-04-09T08:32:17.462Z,52.7
2023-04-09T08:33:17.157Z,54.2
2023-04-09T08:34:16.711Z,53.6
2023-04-09T08:35:17.275Z,53.8
2023-04-09T08:36:16.932Z,55.4
2023-04-09T08:37:17.486Z,55.1
2023-04-09T08:38:17.067Z,54.6
2023-04-09T08:39:16.597Z,53.7
2023-04-09T08:40:17.177Z,53.7
2023-04-09T08:41:16.758Z,53.3
2023-04-09T08:42:16.885Z,51.4
2023-04-09T08:43:17.404Z,50.9
2023-04-09T08:44:16.950Z,51.0
2023-04-09T08:45:17.510Z,52.6
2023-04-09T08:46:17.238Z,52.4
2023-04-09T08:47:16.882Z,50.7
2023-04-09T08:48:17.570Z,50.8
2023-04-09T08:49:17.174Z,50.4
2023-04-09T08:50:16.744Z,50.6
2023-04-09T08:51:17.336Z,50.6
2023-04-09T08:52:17.282Z,51.5
2023-04-09T08:53:16.849Z,52.6
2023-04-09T08:54:17.563Z,53.2
2023-04-09T08:55:17.188Z,52.8
2023-04-09T08:56:16.758Z,51.9
2023-04-09T08:57:17.365Z,51.9
2023-04-09T08:58:16.905Z,53.4
2023-04-09T08:59:17.439Z,54.5
2023-04-09T09:00:16.976Z,54.6
2023-04-09T09:01:16.582Z,52.8
2023-04-09T09:02:16.715Z,52.5
2023-04-09T09:03:17.534Z,55.2
2023-04-09T09:04:17.160Z,54.8
2023-04-09T09:05:16.807Z,56.1
2023-04-09T09:06:17.393Z,55.1
2023-04-09T09:07:16.984Z,54.3
2023-04-09T09:08:16.554Z,51.1
2023-04-09T09:09:17.133Z,52.3
2023-04-09T09:10:16.705Z,52.6
2023-04-09T09:11:17.291Z,54.6
2023-04-09T09:12:16.931Z,52.7
2023-04-09T09:14:16.641Z,54.8
2023-04-09T09:15:17.207Z,54.4
2023-04-09T09:16:16.813Z,54.7
2023-04-09T09:17:17.436Z,54.8
2023-04-09T09:18:17.032Z,52.8
2023-04-09T09:19:16.588Z,50.7
2023-04-09T09:20:17.141Z,49.8
2023-04-09T09:21:16.762Z,50.9
2023-04-09T09:22:17.518Z,49.6
2023-04-09T09:23:17.101Z,49.2
2023-04-09T09:24:16.694Z,49.5
2023-04-09T09:25:17.302Z,49.8
2023-04-09T09:26:16.922Z,48.3
2023-04-09T09:27:17.518Z,47.5
2023-04-09T09:28:17.052Z,49.2
2023-04-09T09:29:16.649Z,49.7
2023-04-09T09:30:17.287Z,48.8
2023-04-09T09:31:16.969Z,49.9
2023-04-09T09:32:17.614Z,51.6
2023-04-09T09:33:17.162Z,50.3
2023-04-09T09:34:16.788Z,50.0
2023-04-09T09:35:17.434Z,51.1
2023-04-09T09:36:16.999Z,50.4
2023-04-09T09:37:16.757Z,49.9
2023-04-09T09:39:17.478Z,49.4
2023-04-09T09:40:17.094Z,45.9
2023-04-09T09:41:16.671Z,47.0
2023-04-09T09:42:17.474Z,45.5
2023-04-09T09:43:17.029Z,44.4
2023-04-09T09:44:16.591Z,47.0
2023-04-09T09:45:17.150Z,48.9
2023-04-09T09:46:16.788Z,47.7
2023-04-09T09:47:17.495Z,46.7
2023-04-09T09:48:17.079Z,46.9
2023-04-09T09:49:16.671Z,46.8
2023-04-09T09:50:17.320Z,46.5
2023-04-09T09:51:16.931Z,46.0
2023-04-09T09:52:17.524Z,46.3
2023-04-09T09:53:17.047Z,45.4
2023-04-09T09:54:16.607Z,45.1
2023-04-09T09:55:17.207Z,44.6
2023-04-09T09:56:16.772Z,44.8
2023-04-09T09:57:17.332Z,44.2
2023-04-09T09:58:16.880Z,44.0
2023-04-09T09:59:17.494Z,43.0
2023-04-09T10:00:19.542Z,43.5
2023-04-09T10:01:17.229Z,42.9
2023-04-09T10:02:17.469Z,43.6
2023-04-09T10:03:17.114Z,44.5
2023-04-09T10:04:16.828Z,45.7
2023-04-09T10:05:17.388Z,45.5
2023-04-09T10:06:16.954Z,47.4
2023-04-09T10:07:17.524Z,47.8
2023-04-09T10:08:17.068Z,48.8
2023-04-09T10:09:16.618Z,48.1
2023-04-09T10:10:17.170Z,48.4
2023-04-09T10:11:16.733Z,48.3
2023-04-09T10:12:17.447Z,48.1
2023-04-09T10:13:16.996Z,49.5
2023-04-09T10:14:16.545Z,50.1
2023-04-09T10:15:17.100Z,50.0
2023-04-09T10:16:16.687Z,50.3
2023-04-09T10:17:17.293Z,50.3
2023-04-09T10:18:16.961Z,51.1
2023-04-09T10:19:17.512Z,52.1
2023-04-09T10:20:17.092Z,50.8
2023-04-09T10:21:16.783Z,51.1
2023-04-09T10:22:16.572Z,50.0
2023-04-09T10:23:17.100Z,48.9
2023-04-09T10:24:16.671Z,48.6
2023-04-09T10:25:17.299Z,47.7
2023-04-09T10:26:16.876Z,46.5
2023-04-09T10:27:17.907Z,46.3
2023-04-09T10:28:17.556Z,46.7
2023-04-09T10:29:17.285Z,47.9
2023-04-09T10:30:16.840Z,47.9
2023-04-09T10:31:17.576Z,49.9
2023-04-09T10:32:17.139Z,48.0
2023-04-09T10:33:16.709Z,48.2
2023-04-09T10:34:17.243Z,47.9
2023-04-09T10:35:16.806Z,48.7
2023-04-09T10:36:17.421Z,48.3
2023-04-09T10:37:17.031Z,48.3
2023-04-09T10:38:16.691Z,47.8
2023-04-09T10:39:17.209Z,47.8
2023-04-09T10:40:16.739Z,49.4
2023-04-09T10:41:17.305Z,49.0
2023-04-09T10:42:17.109Z,47.1
2023-04-09T10:43:16.658Z,47.9
2023-04-09T10:44:17.197Z,46.9
2023-04-09T10:45:16.720Z,46.7
2023-04-09T10:46:17.502Z,46.2
2023-04-09T10:47:17.069Z,45.6
2023-04-09T10:48:16.618Z,45.7
2023-04-09T10:49:17.175Z,45.8
2023-04-09T10:50:16.731Z,44.6
2023-04-09T10:51:17.248Z,45.7
2023-04-09T10:52:16.916Z,46.2
2023-04-09T10:53:17.437Z,46.8
2023-04-09T10:54:17.004Z,48.0
2023-04-09T10:55:16.565Z,45.5
2023-04-09T10:56:17.170Z,45.6
2023-04-09T10:57:16.736Z,45.3
2023-04-09T10:58:17.312Z,43.9
2023-04-09T10:59:16.890Z,44.0
2023-04-09T11:00:17.482Z,43.8
2023-04-09T11:01:17.038Z,43.5
2023-04-09T11:02:16.830Z,43.5
2023-04-09T11:03:17.858Z,44.6
2023-04-09T11:04:16.579Z,45.8
2023-04-09T11:05:17.160Z,46.3
2023-04-09T11:06:16.684Z,46.3
2023-04-09T11:07:17.207Z,46.4
2023-04-09T11:08:16.777Z,45.6
2023-04-09T11:09:17.341Z,44.5
2023-04-09T11:10:16.912Z,43.2
2023-04-09T11:11:17.471Z,43.0
2023-04-09T11:12:17.322Z,44.9
2023-04-09T11:13:16.903Z,44.7
2023-04-09T11:14:17.505Z,44.3
2023-04-09T11:15:17.055Z,44.5
2023-04-09T11:16:25.534Z,42.5
2023-04-09T11:17:17.319Z,42.6
2023-04-09T11:18:16.894Z,40.8
2023-04-09T11:19:17.449Z,40.4
2023-04-09T11:20:17.000Z,40.7
2023-04-09T11:21:16.548Z,40.6
2023-04-09T11:22:17.030Z,41.7
2023-04-09T11:23:16.594Z,40.6
2023-04-09T11:24:17.173Z,40.5
2023-04-09T11:25:16.734Z,43.3
2023-04-09T11:26:17.305Z,42.6
2023-04-09T11:27:16.844Z,42.9
2023-04-09T11:28:17.419Z,43.1
2023-04-09T11:29:16.987Z,44.3
2023-04-09T11:30:16.534Z,44.1
2023-04-09T11:31:17.166Z,44.2
2023-04-09T11:32:16.724Z,43.6
2023-04-09T11:33:20.551Z,43.9
2023-04-09T11:34:17.243Z,46.5
2023-04-09T11:35:16.837Z,46.6
2023-04-09T11:36:17.552Z,46.9
2023-04-09T11:37:17.138Z,47.1
2023-04-09T11:38:16.869Z,48.1
2023-04-09T11:39:17.430Z,48.6
2023-04-09T11:40:17.026Z,47.7
2023-04-09T11:41:16.577Z,47.8
2023-04-09T11:42:17.042Z,47.5
2023-04-09T11:43:16.776Z,46.4
2023-04-09T11:44:17.512Z,46.5
2023-04-09T11:45:17.031Z,47.9
2023-04-09T11:46:16.634Z,48.1
2023-04-09T11:47:17.182Z,48.4
2023-04-09T11:48:16.774Z,50.1
2023-04-09T11:49:17.341Z,50.7
2023-04-09T11:50:16.966Z,49.7
2023-04-09T11:51:16.569Z,48.8
2023-04-09T11:52:17.561Z,48.4
2023-04-09T11:53:17.142Z,47.8
2023-04-09T11:54:16.687Z,48.4
2023-04-09T11:55:17.251Z,49.1
2023-04-09T11:56:16.785Z,49.0
2023-04-09T11:57:17.323Z,49.8
2023-04-09T11:58:16.908Z,49.6
2023-04-09T11:59:17.456Z,50.1
2023-04-09T12:00:17.056Z,49.5
2023-04-09T12:01:16.612Z,50.5
2023-04-09T12:02:17.002Z,50.3
2023-04-09T12:03:17.460Z,49.9
2023-04-09T12:04:17.567Z,51.1
2023-04-09T12:05:17.399Z,51.5
2023-04-09T12:06:17.005Z,50.0
2023-04-09T12:07:16.550Z,50.2
2023-04-09T12:08:17.079Z,50.3
2023-04-09T12:09:16.634Z,50.4
2023-04-09T12:10:17.194Z,51.0
2023-04-09T12:11:16.746Z,51.2
2023-04-09T12:12:17.430Z,50.9
2023-04-09T12:13:17.038Z,50.9
2023-04-09T12:14:16.615Z,49.9
2023-04-09T12:15:17.167Z,50.4
2023-04-09T12:16:16.734Z,50.2
2023-04-09T12:17:17.274Z,50.1
2023-04-09T12:18:16.836Z,50.1
2023-04-09T12:19:17.391Z,51.0
2023-04-09T12:20:16.956Z,51.0
2023-04-09T12:21:19.518Z,51.5
2023-04-09T12:22:17.315Z,51.3
2023-04-09T12:23:16.872Z,51.5
2023-04-09T12:24:17.416Z,51.3
2023-04-09T12:25:16.947Z,50.6
2023-04-09T12:26:17.474Z,51.5
2023-04-09T12:27:17.027Z,52.2
2023-04-09T12:28:16.605Z,51.8
2023-04-09T12:29:17.176Z,51.8
2023-04-09T12:30:16.750Z,51.0
2023-04-09T12:31:17.370Z,50.9
2023-04-09T12:32:17.264Z,51.1
2023-04-09T12:33:16.893Z,50.4
2023-04-09T12:34:17.420Z,50.6
2023-04-09T12:35:16.982Z,50.8
2023-04-09T12:36:16.531Z,52.7
2023-04-09T12:37:17.098Z,51.2
2023-04-09T12:38:16.642Z,50.7
2023-04-09T12:39:17.169Z,49.8
2023-04-09T12:40:16.752Z,50.2
2023-04-09T12:41:17.329Z,50.7
2023-04-09T12:42:17.001Z,49.8
2023-04-09T12:43:16.610Z,50.7
2023-04-09T12:44:17.175Z,51.0
2023-04-09T12:45:16.737Z,51.3
2023-04-09T12:46:17.389Z,51.5
2023-04-09T12:47:17.001Z,51.5
2023-04-09T12:48:16.569Z,51.8
2023-04-09T12:49:17.133Z,52.1
2023-04-09T12:50:16.730Z,52.0
2023-04-09T12:51:17.299Z,51.5
2023-04-09T12:52:16.851Z,52.1
2023-04-09T12:53:17.387Z,52.2
2023-04-09T12:54:16.940Z,52.2
2023-04-09T12:55:17.516Z,52.5
2023-04-09T12:56:17.094Z,52.2
2023-04-09T12:57:16.647Z,52.3
2023-04-09T12:58:17.212Z,52.0
2023-04-09T12:59:16.768Z,51.4
2023-04-09T13:00:17.359Z,51.4
2023-04-09T13:01:16.979Z,52.0
2023-04-09T13:02:17.176Z,52.3
2023-04-09T13:03:17.437Z,51.7
2023-04-09T13:04:17.282Z,51.9
2023-04-09T13:05:16.941Z,52.5
2023-04-09T13:06:16.519Z,52.5
2023-04-09T13:07:17.069Z,52.9
2023-04-09T13:08:16.616Z,53.2
2023-04-09T13:09:17.164Z,53.6
2023-04-09T13:10:16.743Z,53.6
2023-04-09T13:11:17.323Z,53.3
2023-04-09T13:12:17.428Z,52.7
2023-04-09T13:13:16.998Z,53.1
2023-04-09T13:14:16.562Z,53.0
2023-04-09T13:15:17.129Z,52.7
2023-04-09T13:16:16.686Z,53.0
2023-04-09T13:17:17.372Z,53.1
2023-04-09T13:18:16.936Z,52.9
2023-04-09T13:19:17.464Z,53.0
2023-04-09T13:20:17.031Z,53.5
2023-04-09T13:21:16.579Z,53.5
2023-04-09T13:22:17.412Z,53.5